Atlantic Beach, FL (32233)

1:54 AM EST on December 06, 2016 (GMT -0500)
Leeward Landing @ Neptune Beach | | Change Station

Elev 18 ft 30.32 °N, 81.41 °W | Updated 5 seconds ago

Rain
Rain
70.8 °F
Feels Like 70.8 °F
N
0.0
Wind Variable Wind from SW
Gusts 0.0 mph

Today
High -- | Low -- °F
--% Chance of Precip.
Yesterday
High -- | Low -- °F
Precip. -- in
Pressure 29.83 in
Visibility 10.0 miles
Clouds Scattered Clouds 12000 ft
Dew Point 69 °F
Humidity 94%
Rainfall 0.07 in
Snow Depth Not available.
7:08 AM 5:24 PM
Waxing Crescent, 39% visible
METAR KNRB 060552Z AUTO 20007KT 10SM SCT120 23/21 A2984 RMK AO2 RAE03B29E45 SLP102 P0001 60001 T02280206 10250 20222 58012
Pressure 29.83 in
Visibility 10.0 miles
Clouds Scattered Clouds 12000 ft
Dew Point 69 °F
Humidity 94%
Rainfall 0.07 in
Snow Depth Not available.
7:08 AM 5:24 PM
Waxing Crescent, 39% visible
METAR KNRB 060552Z AUTO 20007KT 10SM SCT120 23/21 A2984 RMK AO2 RAE03B29E45 SLP102 P0001 60001 T02280206 10250 20222 58012

10-Day Weather Forecast

Almanac

Astronomy

Dec. 06, 2016 Rise Set
Actual Time
Civil Twilight
Nautical Twilight
Astronomical Twilight
Moon
Length of Visible Light
Length of Day
Tomorrow will be .
, % of the Moon is Illuminated

Today's Extremes

State Highs State Lows

Community

WunderPhotos

Upload Photos

1,955,932 photos uploaded!

WunderBlog® & News

Nearby

Air Quality

  Air Quality AQ Index Pollutant
Not available.

Snow Depth

Station Depth Elevation

Earthquake Activity

City Distance Mag. Time & Date
Minimum magnitude displayed is 2.5.

Coastal Water Temperatures

Place Temperature

Stations

Nearby Weather Stations

Station Location Temp. Windchill Dew Point Humidity Wind Precip. Elev Updated Type
                   

Watches & Warnings

There are currently no watches in effect.